createdAt,value
2022-10-05T00:01:54.703Z,7.40
2022-10-05T00:04:24.695Z,8.67
2022-10-05T00:07:02.005Z,7.40
2022-10-05T00:09:32.623Z,7.40
2022-10-05T00:12:00.681Z,9.37
2022-10-05T00:14:30.815Z,8.20
2022-10-05T00:16:59.159Z,5.97
2022-10-05T00:19:31.467Z,5.40
2022-10-05T00:22:02.886Z,4.90
2022-10-05T00:24:31.329Z,5.07
2022-10-05T00:27:01.863Z,5.10
2022-10-05T00:29:30.184Z,5.30
2022-10-05T00:31:59.301Z,5.70
2022-10-05T00:34:27.367Z,7.07
2022-10-05T00:36:55.635Z,6.40
2022-10-05T00:39:25.127Z,6.40
2022-10-05T00:42:15.391Z,6.60
2022-10-05T00:44:50.386Z,6.80
2022-10-05T00:47:37.871Z,6.73
2022-10-05T00:50:39.763Z,6.63
2022-10-05T00:53:19.978Z,7.83
2022-10-05T00:56:00.093Z,7.67
2022-10-05T00:58:39.259Z,7.40
2022-10-05T01:01:12.319Z,7.80
2022-10-05T01:03:58.042Z,6.37
2022-10-05T01:06:32.300Z,8.40
2022-10-05T01:09:09.963Z,7.10
2022-10-05T01:11:49.130Z,6.93
2022-10-05T01:14:22.740Z,5.13
2022-10-05T01:16:56.217Z,5.57
2022-10-05T01:19:44.118Z,5.90
2022-10-05T01:22:20.004Z,4.40
2022-10-05T01:25:03.678Z,7.03
2022-10-05T01:27:49.446Z,7.23
2022-10-05T01:30:19.439Z,5.80
2022-10-05T01:32:55.049Z,9.80
2022-10-05T01:35:31.226Z,10.97
2022-10-05T01:38:09.911Z,21.20
2022-10-05T01:40:43.763Z,13.73
2022-10-05T01:43:21.328Z,14.00
2022-10-05T01:45:58.414Z,11.17
2022-10-05T01:48:40.857Z,10.93
2022-10-05T01:51:23.186Z,14.23
2022-10-05T01:54:03.972Z,11.10
2022-10-05T01:56:37.836Z,7.97
2022-10-05T01:59:18.793Z,9.27
2022-10-05T02:01:53.554Z,9.57
2022-10-05T02:04:56.939Z,9.50
2022-10-05T02:07:22.225Z,13.50
2022-10-05T02:09:55.296Z,10.63
2022-10-05T02:12:29.537Z,10.37
2022-10-05T02:15:04.885Z,10.60
2022-10-05T02:17:39.327Z,11.63
2022-10-05T02:20:12.157Z,8.87
2022-10-05T02:22:44.681Z,12.10
2022-10-05T02:25:16.062Z,14.00
2022-10-05T02:27:50.190Z,9.97
2022-10-05T02:30:21.037Z,8.90
2022-10-05T02:32:56.214Z,9.47
2022-10-05T02:35:24.915Z,10.80
2022-10-05T02:38:03.100Z,9.93
2022-10-05T02:40:43.689Z,9.00
2022-10-05T02:43:21.835Z,7.60
2022-10-05T02:45:59.921Z,9.73
2022-10-05T02:48:40.064Z,10.60
2022-10-05T02:51:18.399Z,9.03
2022-10-05T02:53:57.635Z,10.23
2022-10-05T02:56:32.996Z,11.17
2022-10-05T02:59:08.426Z,11.10
2022-10-05T03:01:45.216Z,11.13
2022-10-05T03:04:25.943Z,9.60
2022-10-05T03:07:02.045Z,9.73
2022-10-05T03:09:37.076Z,9.43
2022-10-05T03:12:17.389Z,9.83
2022-10-05T03:14:58.518Z,10.33
2022-10-05T03:17:35.586Z,9.23
2022-10-05T03:20:25.014Z,9.00
2022-10-05T03:22:57.437Z,9.40
2022-10-05T03:25:51.522Z,9.60
2022-10-05T03:28:25.104Z,8.93
2022-10-05T03:31:00.020Z,9.47
2022-10-05T03:33:38.772Z,10.03
2022-10-05T03:36:17.509Z,10.30
2022-10-05T03:38:52.823Z,9.83
2022-10-05T03:41:27.832Z,8.93
2022-10-05T03:44:20.666Z,8.70
2022-10-05T03:47:06.415Z,9.00
2022-10-05T03:49:48.810Z,10.00
2022-10-05T03:52:22.019Z,9.73
2022-10-05T03:54:55.502Z,10.00
2022-10-05T03:57:26.910Z,10.70
2022-10-05T04:00:01.903Z,10.03
2022-10-05T04:02:36.851Z,10.37
2022-10-05T04:05:17.258Z,9.63
2022-10-05T04:07:51.406Z,9.10
2022-10-05T04:10:26.201Z,10.43
2022-10-05T04:13:00.377Z,10.00
2022-10-05T04:15:34.658Z,10.10
2022-10-05T04:18:06.647Z,9.90
2022-10-05T04:20:44.018Z,11.30
2022-10-05T04:23:21.829Z,10.27
2022-10-05T04:25:52.805Z,10.17
2022-10-05T04:28:32.230Z,10.87
2022-10-05T04:31:04.667Z,9.60
2022-10-05T04:33:33.543Z,10.00
2022-10-05T04:36:26.858Z,10.13
2022-10-05T04:39:07.867Z,10.80
2022-10-05T04:41:51.524Z,10.70
2022-10-05T04:44:36.990Z,10.67
2022-10-05T04:47:22.675Z,10.90
2022-10-05T04:50:15.879Z,10.73
2022-10-05T04:53:08.390Z,9.97
2022-10-05T04:55:44.550Z,10.70
2022-10-05T04:58:24.816Z,10.50
2022-10-05T05:01:07.387Z,10.67
2022-10-05T05:03:49.770Z,11.27
2022-10-05T05:06:31.470Z,9.87
2022-10-05T05:09:34.487Z,9.27
2022-10-05T05:12:21.093Z,11.27
2022-10-05T05:15:04.207Z,10.50
2022-10-05T05:17:49.136Z,11.20
2022-10-05T05:20:23.483Z,10.07
2022-10-05T05:22:58.373Z,9.77
2022-10-05T05:25:37.697Z,9.83
2022-10-05T05:28:17.592Z,9.83
2022-10-05T05:30:52.238Z,13.30
2022-10-05T05:33:24.109Z,9.90
2022-10-05T05:36:25.099Z,9.47
2022-10-05T05:39:13.671Z,9.40
2022-10-05T05:41:51.077Z,9.83
2022-10-05T05:44:24.683Z,8.97
2022-10-05T05:47:05.038Z,9.53
2022-10-05T05:49:48.914Z,8.67
2022-10-05T05:52:22.830Z,9.53
2022-10-05T05:54:56.994Z,7.97
2022-10-05T05:57:31.039Z,9.27
2022-10-05T06:00:07.807Z,8.10
2022-10-05T06:02:49.999Z,8.43
2022-10-05T06:05:33.817Z,9.00
2022-10-05T06:08:13.259Z,8.47
2022-10-05T06:10:48.235Z,8.07
2022-10-05T06:13:23.119Z,8.20
2022-10-05T06:15:54.809Z,8.43
2022-10-05T06:18:23.934Z,7.00
2022-10-05T06:20:59.491Z,8.87
2022-10-05T06:23:36.475Z,8.93
2022-10-05T06:26:15.194Z,9.30
2022-10-05T06:28:51.861Z,8.63
2022-10-05T06:31:35.970Z,8.00
2022-10-05T06:34:18.351Z,8.93
2022-10-05T06:36:51.525Z,8.43
2022-10-05T06:39:46.983Z,8.47
2022-10-05T06:42:32.710Z,8.50
2022-10-05T06:45:30.970Z,7.67
2022-10-05T06:48:26.407Z,7.20
2022-10-05T06:51:27.763Z,7.70
2022-10-05T06:54:20.963Z,7.90
2022-10-05T06:56:53.468Z,7.33
2022-10-05T06:59:28.616Z,7.50
2022-10-05T07:02:06.104Z,8.30
2022-10-05T07:04:46.801Z,7.60
2022-10-05T07:07:24.548Z,8.00
2022-10-05T07:10:10.267Z,7.97
2022-10-05T07:12:50.718Z,7.97
2022-10-05T07:15:37.612Z,7.83
2022-10-05T07:18:32.020Z,7.67
2022-10-05T07:21:07.634Z,7.47
2022-10-05T07:23:55.266Z,7.80
2022-10-05T07:26:28.490Z,8.67
2022-10-05T07:29:13.659Z,7.57
2022-10-05T07:31:49.129Z,7.77
2022-10-05T07:34:30.879Z,7.30
2022-10-05T07:37:22.823Z,7.40
2022-10-05T07:40:01.145Z,7.67
2022-10-05T07:42:52.629Z,8.10
2022-10-05T07:45:30.485Z,7.10
2022-10-05T07:48:10.796Z,6.40
2022-10-05T07:50:53.968Z,7.03
2022-10-05T07:53:26.666Z,6.60
2022-10-05T07:55:57.078Z,5.70
2022-10-05T07:58:29.871Z,6.90
2022-10-05T08:01:08.610Z,6.00
2022-10-05T08:03:52.105Z,6.63
2022-10-05T08:06:39.043Z,6.97
2022-10-05T08:09:21.234Z,6.47
2022-10-05T08:11:56.470Z,6.10
2022-10-05T08:14:33.642Z,6.30
2022-10-05T08:17:07.121Z,6.27
2022-10-05T08:19:40.468Z,5.97
2022-10-05T08:22:13.649Z,5.30
2022-10-05T08:24:46.748Z,6.40
2022-10-05T08:27:20.902Z,5.80
2022-10-05T08:29:56.555Z,6.10
2022-10-05T08:32:26.965Z,6.20
2022-10-05T08:35:01.642Z,5.70
2022-10-05T08:37:35.234Z,5.80
2022-10-05T08:40:32.768Z,6.07
2022-10-05T08:43:16.378Z,5.70
2022-10-05T08:46:10.716Z,5.90
2022-10-05T08:49:09.748Z,6.10
2022-10-05T08:52:03.074Z,5.60
2022-10-05T08:55:09.941Z,5.40
2022-10-05T08:58:07.408Z,5.40
2022-10-05T09:00:48.062Z,5.50
2022-10-05T09:03:34.668Z,5.47
2022-10-05T09:06:29.988Z,5.60
2022-10-05T09:09:30.543Z,6.20
2022-10-05T09:12:20.215Z,5.90
2022-10-05T09:15:23.823Z,6.17
2022-10-05T09:18:15.686Z,6.17
2022-10-05T09:20:51.819Z,5.63
2022-10-05T09:23:36.971Z,6.50
2022-10-05T09:26:09.829Z,6.37
2022-10-05T09:28:50.127Z,6.37
2022-10-05T09:31:41.305Z,6.47
2022-10-05T09:34:31.471Z,6.40
2022-10-05T09:37:34.931Z,6.20
2022-10-05T09:40:41.857Z,6.50
2022-10-05T09:43:26.281Z,6.83
2022-10-05T09:46:28.409Z,6.50
2022-10-05T09:49:15.687Z,6.40
2022-10-05T09:52:12.270Z,7.00
2022-10-05T09:55:25.556Z,7.37
2022-10-05T09:58:29.391Z,7.57
2022-10-05T10:01:34.795Z,7.13
2022-10-05T10:04:25.041Z,8.00
2022-10-05T10:07:20.482Z,8.00
2022-10-05T10:10:16.845Z,7.37
2022-10-05T10:13:04.686Z,7.23
2022-10-05T10:16:05.420Z,7.00
2022-10-05T10:19:12.423Z,7.47
2022-10-05T10:22:31.673Z,6.67
2022-10-05T10:25:24.090Z,7.30
2022-10-05T10:28:07.758Z,6.90
2022-10-05T10:31:00.920Z,7.80
2022-10-05T10:33:48.979Z,7.13
2022-10-05T10:36:22.720Z,7.10
2022-10-05T10:39:00.999Z,6.70
2022-10-05T10:41:51.239Z,7.67
2022-10-05T10:44:58.794Z,7.20
2022-10-05T10:47:51.661Z,6.83
2022-10-05T10:51:02.115Z,6.43
2022-10-05T10:54:12.074Z,7.00
2022-10-05T10:57:04.979Z,7.27
2022-10-05T11:00:07.024Z,7.07
2022-10-05T11:03:11.423Z,6.87
2022-10-05T11:06:07.487Z,6.40
2022-10-05T11:09:04.657Z,6.80
2022-10-05T11:12:04.998Z,6.80
2022-10-05T11:14:48.793Z,7.07
2022-10-05T11:17:31.654Z,6.40
2022-10-05T11:20:16.654Z,6.30
2022-10-05T11:22:55.599Z,5.87
2022-10-05T11:25:53.469Z,6.67
2022-10-05T11:28:52.367Z,5.37
2022-10-05T11:31:56.391Z,6.63
2022-10-05T11:34:53.087Z,5.90
2022-10-05T11:37:54.590Z,5.70
2022-10-05T11:40:56.494Z,4.67
2022-10-05T11:44:06.076Z,5.30
2022-10-05T11:46:44.537Z,5.33
2022-10-05T11:49:26.755Z,4.80
2022-10-05T11:52:03.279Z,4.43
2022-10-05T11:55:10.468Z,4.17
2022-10-05T11:57:47.364Z,3.83
2022-10-05T12:00:19.511Z,3.97
2022-10-05T12:03:21.306Z,4.57
2022-10-05T12:06:07.152Z,3.87
2022-10-05T12:08:43.675Z,3.47
2022-10-05T12:11:44.193Z,3.70
2022-10-05T12:14:22.010Z,3.50
2022-10-05T12:16:58.839Z,4.00
2022-10-05T12:19:36.387Z,4.37
2022-10-05T12:22:15.309Z,4.00
2022-10-05T12:25:02.409Z,3.70
2022-10-05T12:27:35.851Z,3.60
2022-10-05T12:30:13.445Z,3.90
2022-10-05T12:32:59.378Z,3.73
2022-10-05T12:35:47.891Z,4.10
2022-10-05T12:38:28.295Z,3.83
2022-10-05T12:41:07.861Z,3.47
2022-10-05T12:43:48.029Z,3.67
2022-10-05T12:46:27.539Z,2.90
2022-10-05T12:49:13.249Z,3.47
2022-10-05T12:51:44.082Z,3.37
2022-10-05T12:54:19.912Z,3.63
2022-10-05T12:56:55.397Z,3.30
2022-10-05T12:59:34.142Z,3.47
2022-10-05T13:02:09.040Z,3.30
2022-10-05T13:04:49.118Z,2.80
2022-10-05T13:07:41.449Z,2.40
2022-10-05T13:10:22.506Z,2.47
2022-10-05T13:13:01.291Z,2.10
2022-10-05T13:15:32.666Z,2.80
2022-10-05T13:18:13.030Z,2.87
2022-10-05T13:20:46.860Z,2.60
2022-10-05T13:23:22.584Z,2.57
2022-10-05T13:25:56.559Z,2.03
2022-10-05T13:28:29.829Z,2.27
2022-10-05T13:31:03.937Z,2.50
2022-10-05T13:33:59.454Z,2.00
2022-10-05T13:36:39.330Z,2.10
2022-10-05T13:39:21.523Z,2.23
2022-10-05T13:41:56.452Z,1.60
2022-10-05T13:44:32.723Z,1.63
2022-10-05T13:47:04.616Z,1.90
2022-10-05T13:49:39.832Z,1.30
2022-10-05T13:52:22.326Z,1.60
2022-10-05T13:54:57.595Z,1.30
2022-10-05T13:57:45.151Z,1.30
2022-10-05T14:00:22.642Z,1.70
2022-10-05T14:02:56.878Z,1.43
2022-10-05T14:05:27.769Z,1.27
2022-10-05T14:07:59.644Z,1.23
2022-10-05T14:10:35.102Z,1.50
2022-10-05T14:13:17.907Z,1.70
2022-10-05T14:15:59.407Z,1.57
2022-10-05T14:18:30.816Z,1.43
2022-10-05T14:21:01.694Z,1.40
2022-10-05T14:23:31.493Z,1.33
2022-10-05T14:26:03.644Z,1.50
2022-10-05T14:28:34.524Z,1.40
2022-10-05T14:31:05.045Z,1.30
2022-10-05T14:33:35.014Z,1.50
2022-10-05T14:36:03.493Z,1.30
2022-10-05T14:38:36.816Z,1.00
2022-10-05T14:41:18.265Z,1.77
2022-10-05T14:43:55.938Z,1.30
2022-10-05T14:46:29.003Z,1.27
2022-10-05T14:49:17.424Z,1.30
2022-10-05T14:51:45.486Z,1.40
2022-10-05T14:54:36.618Z,1.60
2022-10-05T14:57:17.959Z,1.40
2022-10-05T15:00:11.761Z,1.40
2022-10-05T15:02:59.111Z,1.40
2022-10-05T15:05:32.372Z,1.20
2022-10-05T15:08:10.227Z,1.13
2022-10-05T15:10:43.915Z,1.30
2022-10-05T15:13:16.578Z,1.50
2022-10-05T15:15:51.940Z,1.40
2022-10-05T15:18:31.987Z,1.73
2022-10-05T15:21:24.030Z,1.20
2022-10-05T15:23:56.677Z,1.50
2022-10-05T15:26:37.924Z,1.43
2022-10-05T15:29:16.281Z,1.33
2022-10-05T15:31:51.274Z,1.60
2022-10-05T15:34:25.300Z,1.43
2022-10-05T15:37:03.054Z,1.47
2022-10-05T15:39:35.786Z,1.67
2022-10-05T15:42:10.898Z,1.40
2022-10-05T15:44:52.060Z,1.50
2022-10-05T15:47:26.595Z,1.40
2022-10-05T15:50:06.386Z,1.40
2022-10-05T15:52:42.727Z,1.30
2022-10-05T15:55:26.235Z,1.30
2022-10-05T15:58:31.353Z,1.77
2022-10-05T16:01:05.232Z,1.37
2022-10-05T16:03:45.210Z,1.60
2022-10-05T16:06:36.839Z,1.90
2022-10-05T16:09:17.040Z,1.43
2022-10-05T16:12:02.396Z,1.30
2022-10-05T16:14:39.793Z,1.40
2022-10-05T16:17:21.763Z,1.47
2022-10-05T16:20:04.102Z,1.30
2022-10-05T16:22:43.570Z,1.53
2022-10-05T16:25:19.004Z,1.53
2022-10-05T16:28:06.500Z,1.33
2022-10-05T16:30:48.164Z,1.40
2022-10-05T16:33:21.568Z,1.50
2022-10-05T16:35:57.116Z,1.67
2022-10-05T16:38:34.958Z,1.40
2022-10-05T16:41:12.660Z,1.57
2022-10-05T16:43:49.356Z,1.27
2022-10-05T16:46:29.600Z,1.23
2022-10-05T16:49:10.712Z,1.60
2022-10-05T16:51:50.547Z,1.53
2022-10-05T16:54:21.268Z,1.37
2022-10-05T16:56:53.526Z,1.67
2022-10-05T17:00:01.777Z,1.60
2022-10-05T17:02:58.504Z,1.50
2022-10-05T17:05:42.183Z,1.50
2022-10-05T17:08:26.616Z,1.90
2022-10-05T17:11:16.662Z,1.70
2022-10-05T17:14:00.916Z,1.60
2022-10-05T17:16:38.476Z,1.93
2022-10-05T17:19:35.128Z,1.80
2022-10-05T17:22:12.626Z,1.47
2022-10-05T17:24:54.979Z,1.63
2022-10-05T17:27:32.809Z,1.40
2022-10-05T17:30:21.410Z,1.50
2022-10-05T17:32:57.946Z,1.90
2022-10-05T17:35:58.231Z,1.80
2022-10-05T17:38:47.444Z,1.67
2022-10-05T17:41:19.105Z,1.27
2022-10-05T17:44:24.289Z,1.30
2022-10-05T17:46:53.961Z,2.10
2022-10-05T17:49:27.631Z,1.80
2022-10-05T17:52:26.762Z,1.60
2022-10-05T17:55:30.027Z,1.70
2022-10-05T17:58:00.521Z,1.40
2022-10-05T18:00:41.950Z,1.50
2022-10-05T18:03:36.155Z,1.60
2022-10-05T18:06:33.178Z,1.70
2022-10-05T18:09:37.590Z,1.50
2022-10-05T18:12:41.242Z,1.80
2022-10-05T18:15:37.818Z,1.83
2022-10-05T18:18:54.534Z,1.80
2022-10-05T18:21:37.936Z,2.00
2022-10-05T18:24:44.878Z,1.67
2022-10-05T18:27:43.780Z,1.90
2022-10-05T18:30:21.392Z,1.80
2022-10-05T18:33:14.461Z,1.90
2022-10-05T18:35:53.517Z,1.50
2022-10-05T18:38:33.689Z,1.80
2022-10-05T18:41:09.124Z,1.80
2022-10-05T18:43:42.451Z,1.77
2022-10-05T18:46:26.137Z,1.60
2022-10-05T18:49:07.765Z,2.73
2022-10-05T18:51:51.654Z,2.00
2022-10-05T18:54:34.323Z,2.00
2022-10-05T18:57:34.215Z,2.07
2022-10-05T19:00:08.228Z,2.23
2022-10-05T19:02:38.891Z,2.00
2022-10-05T19:05:45.881Z,2.10
2022-10-05T19:08:14.408Z,2.07
2022-10-05T19:10:46.589Z,1.90
2022-10-05T19:13:31.566Z,2.57
2022-10-05T19:16:17.088Z,2.23
2022-10-05T19:19:00.013Z,1.93
2022-10-05T19:21:38.275Z,2.23
2022-10-05T19:24:32.309Z,2.00
2022-10-05T19:27:12.320Z,1.73
2022-10-05T19:30:03.374Z,2.40
2022-10-05T19:32:47.434Z,1.77
2022-10-05T19:35:25.174Z,2.17
2022-10-05T19:38:08.044Z,2.03
2022-10-05T19:40:44.261Z,2.40
2022-10-05T19:43:25.731Z,2.70
2022-10-05T19:46:04.037Z,2.07
2022-10-05T19:48:40.406Z,2.30
2022-10-05T19:51:15.828Z,2.80
2022-10-05T19:53:49.989Z,2.10
2022-10-05T19:56:21.023Z,2.67
2022-10-05T19:58:50.181Z,2.33
2022-10-05T20:01:26.809Z,2.43
2022-10-05T20:03:58.010Z,2.40
2022-10-05T20:06:26.961Z,2.40
2022-10-05T20:09:00.195Z,2.30
2022-10-05T20:11:29.575Z,2.50
2022-10-05T20:14:20.444Z,2.10
2022-10-05T20:17:05.741Z,2.23
2022-10-05T20:19:57.477Z,2.27
2022-10-05T20:22:34.161Z,2.13
2022-10-05T20:25:05.642Z,2.43
2022-10-05T20:27:36.452Z,2.80
2022-10-05T20:30:05.698Z,3.03
2022-10-05T20:32:33.867Z,1.93
2022-10-05T20:35:03.559Z,2.30
2022-10-05T20:37:31.562Z,2.23
2022-10-05T20:39:59.691Z,2.23
2022-10-05T20:42:27.636Z,2.20
2022-10-05T20:44:57.262Z,2.70
2022-10-05T20:47:25.738Z,2.17
2022-10-05T20:49:54.535Z,2.60
2022-10-05T20:52:24.064Z,2.00
2022-10-05T20:54:56.954Z,2.03
2022-10-05T20:57:24.935Z,2.63
2022-10-05T20:59:52.939Z,2.50
2022-10-05T21:02:21.180Z,2.73
2022-10-05T21:04:49.238Z,3.03
2022-10-05T21:07:21.014Z,2.67
2022-10-05T21:09:51.531Z,2.50
2022-10-05T21:12:19.495Z,2.30
2022-10-05T21:14:47.539Z,2.90
2022-10-05T21:17:15.587Z,2.17
2022-10-05T21:19:43.559Z,2.40
2022-10-05T21:22:11.689Z,2.90
2022-10-05T21:24:41.519Z,2.67
2022-10-05T21:27:10.969Z,3.03
2022-10-05T21:29:40.978Z,2.30
2022-10-05T21:32:11.384Z,2.10
2022-10-05T21:34:39.778Z,2.83
2022-10-05T21:37:07.824Z,2.53
2022-10-05T21:39:36.528Z,2.33
2022-10-05T21:42:05.273Z,2.57
2022-10-05T21:44:34.645Z,2.30
2022-10-05T21:47:04.154Z,2.77
2022-10-05T21:49:32.385Z,2.80
2022-10-05T21:52:02.942Z,2.80
2022-10-05T21:54:32.939Z,2.80
2022-10-05T21:57:01.163Z,2.83
2022-10-05T21:59:31.960Z,2.70
2022-10-05T22:02:02.379Z,2.63
2022-10-05T22:04:34.145Z,2.93
2022-10-05T22:07:03.484Z,4.50
2022-10-05T22:09:31.519Z,3.00
2022-10-05T22:11:59.996Z,2.80
2022-10-05T22:14:28.253Z,2.70
2022-10-05T22:16:56.318Z,2.53
2022-10-05T22:19:25.786Z,3.10
2022-10-05T22:21:53.777Z,2.80
2022-10-05T22:24:21.727Z,3.00
2022-10-05T22:26:51.550Z,2.67
2022-10-05T22:29:20.482Z,2.90
2022-10-05T22:31:49.257Z,3.10
2022-10-05T22:34:18.821Z,3.30
2022-10-05T22:36:48.625Z,2.53
2022-10-05T22:39:17.616Z,3.33
2022-10-05T22:41:45.661Z,3.57
2022-10-05T22:44:13.710Z,3.40
2022-10-05T22:46:41.724Z,3.13
2022-10-05T22:49:09.865Z,3.13
2022-10-05T22:51:37.893Z,3.33
2022-10-05T22:54:07.340Z,3.43
2022-10-05T22:56:35.563Z,3.40
2022-10-05T22:59:03.520Z,3.50
2022-10-05T23:01:31.582Z,3.60
2022-10-05T23:03:59.577Z,3.20
2022-10-05T23:06:27.710Z,3.27
2022-10-05T23:08:56.149Z,2.77
2022-10-05T23:11:27.195Z,3.40
2022-10-05T23:13:56.756Z,3.60
2022-10-05T23:16:26.562Z,3.10
2022-10-05T23:18:55.310Z,3.30
2022-10-05T23:21:25.425Z,3.90
2022-10-05T23:23:53.405Z,3.70
2022-10-05T23:26:24.839Z,3.30
2022-10-05T23:28:54.504Z,3.40
2022-10-05T23:31:24.544Z,3.70
2022-10-05T23:33:52.853Z,3.33
2022-10-05T23:36:22.637Z,2.80
2022-10-05T23:38:50.799Z,3.70
2022-10-05T23:41:19.542Z,3.20
2022-10-05T23:43:48.066Z,3.23
2022-10-05T23:46:18.491Z,3.40
2022-10-05T23:48:46.534Z,3.20
2022-10-05T23:51:15.452Z,3.40
2022-10-05T23:53:43.541Z,3.67
2022-10-05T23:56:11.890Z,2.50
2022-10-05T23:58:40.221Z,2.10
